Time;durP1;ratioP1;P1;durP2;ratioP2;P2;SDS_P1;SDS_P2;PMS_P1;PMS_P2;Temp;Humidity;BMP_temperature;BMP_pressure;BME280_temperature;BME280_humidity;BME280_pressure;Samples;Min_cycle;Max_cycle;Signal;HPM_P1;HPM_P2
2022/01/14 00:00:18;;;;;;;27.63;16.63;;;;;;;-2.06;100.00;98184.41;5028997;28;101824;-62
2022/01/14 00:02:49;;;;;;;26.43;16.70;;;;;;;-2.10;100.00;98172.56;5044346;27;102300;-62
2022/01/14 00:05:17;;;;;;;25.70;16.90;;;;;;;-2.03;100.00;98172.88;5034766;27;105180;-62
2022/01/14 00:07:58;;;;;;;30.27;18.03;;;;;;;-1.99;100.00;98176.88;5032372;27;105106;-62
2022/01/14 00:10:29;;;;;;;28.00;17.17;;;;;;;-1.95;100.00;98186.94;5028007;28;105719;-62
2022/01/14 00:13:05;;;;;;;29.00;18.63;;;;;;;-2.06;100.00;98184.41;5025461;27;101855;-62
2022/01/14 00:15:34;;;;;;;29.30;18.13;;;;;;;-2.05;100.00;98178.22;5050662;27;102974;-62
2022/01/14 00:18:17;;;;;;;29.43;18.20;;;;;;;-1.98;100.00;98191.59;5031493;27;104192;-62
2022/01/14 00:20:46;;;;;;;26.30;16.87;;;;;;;-2.08;100.00;98188.09;5032482;27;101854;-62
2022/01/14 00:23:13;;;;;;;25.47;17.03;;;;;;;-2.06;100.00;98196.59;5028555;28;104951;-62
2022/01/14 00:34:01;;;;;;;28.37;17.47;;;;;;;-2.22;100.00;98193.63;5032184;27;102022;-62
2022/01/14 00:36:29;;;;;;;28.13;16.97;;;;;;;-2.20;100.00;98187.31;5028234;28;105455;-62
2022/01/14 00:38:59;;;;;;;29.03;17.47;;;;;;;-2.28;100.00;98194.13;5011159;28;105233;-62
2022/01/14 00:42:01;;;;;;;27.73;17.90;;;;;;;-2.17;100.00;98196.66;5024339;28;101791;-62
2022/01/14 00:44:28;;;;;;;29.53;18.20;;;;;;;-2.17;100.00;98196.66;5032195;27;105025;-62
2022/01/14 00:46:55;;;;;;;23.70;15.47;;;;;;;-2.10;100.00;98190.81;5030883;27;106738;-62
2022/01/14 00:49:30;;;;;;;30.90;17.53;;;;;;;-2.17;100.00;98196.66;5034844;27;102153;-62
2022/01/14 00:51:58;;;;;;;26.13;17.10;;;;;;;-2.31;100.00;98195.19;5027700;28;105712;-62
2022/01/14 00:54:26;;;;;;;28.53;17.20;;;;;;;-2.24;100.00;98198.94;5011407;28;101898;-62
2022/01/14 00:57:13;;;;;;;25.20;16.40;;;;;;;-2.37;100.00;98200.09;5028714;27;105547;-62
2022/01/14 00:59:39;;;;;;;26.27;17.23;;;;;;;-2.44;100.00;98193.75;5031047;27;105088;-62
2022/01/14 01:02:06;;;;;;;27.40;17.17;;;;;;;-2.47;100.00;98187.00;5049636;27;101842;-62
2022/01/14 01:04:37;;;;;;;24.27;15.97;;;;;;;-2.48;100.00;98176.69;5030964;27;105549;-62
2022/01/14 01:07:08;;;;;;;27.73;16.53;;;;;;;-2.55;100.00;98180.78;5027087;28;105669;-62
2022/01/14 01:09:37;;;;;;;26.10;17.43;;;;;;;-2.53;100.00;98184.91;5017312;27;101851;-62
2022/01/14 01:12:11;;;;;;;28.47;17.37;;;;;;;-2.54;100.00;98178.03;5030276;28;105423;-62
2022/01/14 01:14:45;;;;;;;24.73;16.63;;;;;;;-2.73;100.00;98171.88;5017503;27;101892;-62
2022/01/14 01:17:12;;;;;;;27.90;16.87;;;;;;;-2.74;100.00;98167.63;5031227;27;103569;-62
2022/01/14 01:19:40;;;;;;;29.47;18.20;;;;;;;-2.72;100.00;98169.16;5026682;28;105268;-62
2022/01/14 01:22:09;;;;;;;27.43;16.73;;;;;;;-2.58;100.00;98173.22;5046116;27;101858;-62
2022/01/14 01:24:48;;;;;;;24.43;16.33;;;;;;;-2.52;100.00;98165.72;5030959;27;104947;-62
2022/01/14 01:27:18;;;;;;;24.40;16.20;;;;;;;-2.45;100.00;98160.84;5027035;28;105636;-62
2022/01/14 01:29:51;;;;;;;27.40;17.07;;;;;;;-2.38;100.00;98159.38;5020849;27;102305;-62
2022/01/14 01:32:18;;;;;;;25.87;15.77;;;;;;;-2.37;100.00;98154.03;5031012;27;105146;-62
2022/01/14 01:34:45;;;;;;;30.23;17.33;;;;;;;-2.33;100.00;98152.00;5029865;28;105436;-62
2022/01/14 01:37:14;;;;;;;27.50;17.37;;;;;;;-2.34;100.00;98142.53;5028361;27;105062;-62
2022/01/14 01:39:40;;;;;;;24.43;15.77;;;;;;;-2.47;100.00;98136.69;5025532;28;105479;-62
2022/01/14 01:42:11;;;;;;;26.43;16.10;;;;;;;-2.29;100.00;98130.75;5017502;27;101859;-62
2022/01/14 01:44:43;;;;;;;27.43;16.77;;;;;;;-2.27;100.00;98128.03;5026614;28;105101;-62
2022/01/14 01:47:10;;;;;;;28.80;17.57;;;;;;;-2.35;100.00;98118.25;5026976;28;105212;-62
2022/01/14 01:49:39;;;;;;;27.30;16.77;;;;;;;-2.31;100.00;98109.22;5029968;27;101920;-62
2022/01/14 01:52:06;;;;;;;28.33;16.60;;;;;;;-2.42;100.00;98116.28;5030370;27;105245;-62
2022/01/14 01:54:35;;;;;;;28.13;17.03;;;;;;;-2.51;100.00;98120.47;5028635;27;105863;-62
2022/01/14 01:57:02;;;;;;;26.73;17.43;;;;;;;-2.71;100.00;98113.50;5029573;28;101921;-62
2022/01/14 01:59:45;;;;;;;26.70;18.07;;;;;;;-2.58;100.00;98108.94;5015141;28;104433;-62
2022/01/14 02:02:12;;;;;;;24.70;16.93;;;;;;;-2.67;100.00;98109.69;5010841;28;101893;-62
2022/01/14 02:04:39;;;;;;;25.87;16.93;;;;;;;-2.75;100.00;98111.28;5025175;27;103853;-62
2022/01/14 02:07:06;;;;;;;25.37;16.63;;;;;;;-2.66;100.00;98111.34;5026513;28;105290;-62
2022/01/14 02:09:42;;;;;;;26.37;16.83;;;;;;;-2.58;100.00;98103.72;5042527;27;101853;-62
2022/01/14 02:12:11;;;;;;;26.80;17.43;;;;;;;-2.65;100.00;98110.41;5048687;27;102873;-62
2022/01/14 02:14:55;;;;;;;25.47;16.40;;;;;;;-2.93;100.00;98099.78;5048333;27;103303;-62
2022/01/14 02:17:35;;;;;;;25.60;16.27;;;;;;;-2.94;100.00;98101.56;5028882;28;101959;-62
2022/01/14 02:22:54;;;;;;;25.87;16.63;;;;;;;-2.71;100.00;98095.28;5048677;27;101898;-62
2022/01/14 02:25:29;;;;;;;24.87;15.93;;;;;;;-2.83;100.00;98087.66;5027100;28;103788;-62
2022/01/14 02:28:13;;;;;;;29.50;16.50;;;;;;;-2.76;100.00;98089.63;5011921;27;105201;-62
2022/01/14 02:30:43;;;;;;;27.83;16.47;;;;;;;-2.55;100.00;98087.84;5049026;27;102401;-62
2022/01/14 02:33:12;;;;;;;28.13;17.97;;;;;;;-2.57;100.00;98092.34;5033312;27;105381;-62
2022/01/14 02:35:42;;;;;;;29.17;18.47;;;;;;;-2.67;100.00;98094.06;5051039;27;102775;-62
2022/01/14 02:38:11;;;;;;;29.63;17.83;;;;;;;-2.70;100.00;98083.91;5033753;27;101840;-62
2022/01/14 02:40:41;;;;;;;29.67;17.77;;;;;;;-2.65;100.00;98086.97;5052017;27;102417;-62
2022/01/14 02:43:12;;;;;;;29.40;17.93;;;;;;;-2.62;100.00;98083.28;5054891;27;102011;-61
2022/01/14 02:45:40;;;;;;;31.20;18.73;;;;;;;-2.46;100.00;98081.06;5033340;27;104737;-62
2022/01/14 02:48:23;;;;;;;29.30;17.43;;;;;;;-2.38;100.00;98081.22;5032629;27;105110;-62
2022/01/14 02:50:57;;;;;;;29.60;17.50;;;;;;;-2.29;100.00;98083.84;5052045;27;102313;-62
2022/01/14 02:53:30;;;;;;;30.37;18.33;;;;;;;-2.38;100.00;98076.00;5030168;28;104246;-62
2022/01/14 02:55:59;;;;;;;27.50;17.63;;;;;;;-2.45;100.00;98080.94;5021506;27;105304;-62
2022/01/14 02:58:43;;;;;;;31.17;18.40;;;;;;;-2.41;100.00;98084.91;5032368;27;102167;-62
2022/01/14 03:01:12;;;;;;;27.37;16.27;;;;;;;-2.41;100.00;98086.69;5013569;28;105343;-62
2022/01/14 03:03:43;;;;;;;27.23;17.00;;;;;;;-2.59;100.00;98085.63;5015796;28;105500;-62
2022/01/14 03:06:13;;;;;;;24.23;15.80;;;;;;;-2.70;100.00;98088.28;5041822;27;102533;-62
2022/01/14 03:08:42;;;;;;;25.37;16.53;;;;;;;-2.77;100.00;98087.16;5032652;27;104949;-62
2022/01/14 03:11:11;;;;;;;30.53;18.90;;;;;;;-2.86;100.00;98086.13;5029263;28;101815;-62
2022/01/14 03:13:39;;;;;;;27.30;17.03;;;;;;;-2.87;100.00;98087.09;5013056;28;106516;-62
2022/01/14 03:16:07;;;;;;;26.40;17.90;;;;;;;-2.83;100.00;98087.66;5018497;28;105038;-62
2022/01/14 03:19:05;;;;;;;24.60;15.70;;;;;;;-2.97;100.00;98101.81;5048775;27;103709;-62
2022/01/14 03:21:36;;;;;;;26.10;15.67;;;;;;;-3.08;100.00;98096.66;5032885;27;105198;-62
2022/01/14 03:24:16;;;;;;;26.13;16.70;;;;;;;-3.01;100.00;98095.19;5032787;27;105141;-62
2022/01/14 03:26:45;;;;;;;25.57;16.20;;;;;;;-2.97;100.00;98100.97;5035905;27;101985;-62
2022/01/14 03:29:23;;;;;;;30.03;17.13;;;;;;;-3.05;100.00;98093.81;5032398;27;105577;-62
2022/01/14 03:31:49;;;;;;;27.70;17.03;;;;;;;-2.95;100.00;98099.91;5032536;27;101993;-62
2022/01/14 03:34:17;;;;;;;25.50;16.53;;;;;;;-2.96;100.00;98094.84;5033035;27;103563;-62
2022/01/14 03:36:46;;;;;;;21.97;14.93;;;;;;;-3.11;100.00;98089.09;5030345;27;105766;-62
2022/01/14 03:39:14;;;;;;;27.03;16.03;;;;;;;-3.05;100.00;98083.41;5051135;27;102143;-62
2022/01/14 03:42:15;;;;;;;25.33;16.27;;;;;;;-3.02;100.00;98084.91;5029332;28;105481;-62
2022/01/14 03:44:42;;;;;;;25.80;15.27;;;;;;;-3.15;100.00;98074.69;5012850;27;105654;-62
2022/01/14 03:47:09;;;;;;;26.93;15.10;;;;;;;-3.11;100.00;98077.88;5050666;27;102285;-62
2022/01/14 03:49:36;;;;;;;24.70;16.33;;;;;;;-3.16;100.00;98064.41;5035335;27;105172;-62
2022/01/14 03:52:05;;;;;;;25.27;16.20;;;;;;;-3.09;100.00;98062.94;5032737;27;101897;-62
2022/01/14 03:54:32;;;;;;;24.50;15.90;;;;;;;-2.98;100.00;98061.13;5029084;28;105111;-62
2022/01/14 03:56:59;;;;;;;26.77;15.57;;;;;;;-2.92;100.00;98065.81;5031129;27;105792;-62
2022/01/14 03:59:39;;;;;;;28.73;18.53;;;;;;;-2.95;100.00;98063.47;5032740;27;101874;-62
2022/01/14 04:02:06;;;;;;;27.27;16.60;;;;;;;-3.10;100.00;98061.31;5050620;27;102869;-62
2022/01/14 04:04:35;;;;;;;24.13;14.90;;;;;;;-3.05;100.00;98059.16;5031758;27;105938;-62
2022/01/14 04:07:04;;;;;;;24.00;14.70;;;;;;;-3.14;100.00;98054.69;5031579;27;101943;-62
2022/01/14 04:09:38;;;;;;;24.80;15.90;;;;;;;-3.13;100.00;98048.53;5032386;27;104936;-62
2022/01/14 04:12:33;;;;;;;25.23;16.53;;;;;;;-3.06;100.00;98050.50;5034918;27;103837;-62
2022/01/14 04:17:47;;;;;;;28.53;17.30;;;;;;;-3.12;100.00;98035.41;5031361;27;105024;-62
2022/01/14 04:20:14;;;;;;;25.63;15.93;;;;;;;-3.18;100.00;98030.69;5050595;27;101843;-62
2022/01/14 04:22:43;;;;;;;23.07;15.00;;;;;;;-3.20;100.00;98031.78;5032109;27;105526;-62
2022/01/14 04:25:10;;;;;;;22.17;15.17;;;;;;;-3.24;100.00;98035.56;5049307;27;102597;-62
2022/01/14 04:27:45;;;;;;;26.53;16.90;;;;;;;-3.20;100.00;98030.00;5028615;28;101994;-62
2022/01/14 04:30:13;;;;;;;24.10;16.13;;;;;;;-3.24;100.00;98023.41;5036360;27;102269;-62
2022/01/14 04:32:40;;;;;;;26.00;17.10;;;;;;;-3.19;100.00;98025.63;5031479;27;105093;-62
2022/01/14 04:35:08;;;;;;;28.30;15.73;;;;;;;-3.11;100.00;98016.22;5032091;28;101849;-62
2022/01/14 04:38:11;;;;;;;24.27;16.00;;;;;;;-3.19;100.00;98012.59;5011268;28;103774;-62
2022/01/14 04:40:38;;;;;;;24.17;15.47;;;;;;;-3.12;100.00;98011.97;5038161;27;102200;-62
2022/01/14 04:43:06;;;;;;;27.37;16.03;;;;;;;-3.21;100.00;98011.94;5031699;27;105589;-62
2022/01/14 04:45:43;;;;;;;25.30;16.43;;;;;;;-3.09;100.00;98013.50;5027912;28;105668;-61
2022/01/14 04:48:16;;;;;;;29.20;17.07;;;;;;;-3.14;100.00;98005.25;5014908;27;101845;-62
2022/01/14 04:50:43;;;;;;;25.90;16.33;;;;;;;-3.02;100.00;97999.03;5049882;27;102973;-62
2022/01/14 04:53:13;;;;;;;25.87;15.77;;;;;;;-3.01;100.00;97993.72;5030782;27;105486;-62
2022/01/14 04:55:40;;;;;;;20.90;14.13;;;;;;;-2.76;100.00;97992.47;5030725;28;103595;-62
2022/01/14 04:58:16;;;;;;;23.57;15.17;;;;;;;-2.70;100.00;97982.38;5029226;27;105278;-62
2022/01/14 05:00:43;;;;;;;22.60;13.87;;;;;;;-2.72;100.00;97976.50;5031620;27;101774;-62
2022/01/14 05:03:11;;;;;;;25.30;15.80;;;;;;;-2.67;100.00;97978.69;5049590;27;102512;-62
2022/01/14 05:05:42;;;;;;;20.70;14.63;;;;;;;-2.75;100.00;97974.13;5027631;28;105469;-62
2022/01/14 05:08:23;;;;;;;28.97;16.00;;;;;;;-2.74;100.00;97975.78;5011702;27;101925;-62
2022/01/14 05:11:02;;;;;;;24.73;15.90;;;;;;;-2.70;100.00;97990.19;5027201;28;104803;-62
2022/01/14 05:13:30;;;;;;;24.93;15.53;;;;;;;-2.75;100.00;97987.16;5013525;27;104964;-62
2022/01/14 05:15:58;;;;;;;22.20;14.37;;;;;;;-2.71;100.00;97979.91;5031422;27;102114;-62
2022/01/14 05:18:47;;;;;;;23.43;14.77;;;;;;;-2.86;100.00;97995.03;5052118;27;104779;-62
2022/01/14 05:21:14;;;;;;;24.07;14.30;;;;;;;-2.82;100.00;97990.41;5049562;27;101846;-62
2022/01/14 05:23:44;;;;;;;23.80;14.73;;;;;;;-2.79;100.00;98000.56;5030948;27;105014;-62
2022/01/14 05:26:11;;;;;;;20.77;13.63;;;;;;;-2.87;100.00;97997.75;5027473;28;105435;-62
2022/01/14 05:28:43;;;;;;;25.50;15.63;;;;;;;-2.88;100.00;98001.31;5013161;27;102290;-62
2022/01/14 05:31:10;;;;;;;22.87;15.00;;;;;;;-2.95;100.00;98000.19;5031364;27;104794;-62
2022/01/14 05:33:39;;;;;;;29.27;17.80;;;;;;;-2.98;100.00;97997.84;5030309;27;105613;-62
2022/01/14 05:36:06;;;;;;;28.37;17.53;;;;;;;-3.09;100.00;97998.75;5049053;27;101919;-62
2022/01/14 05:38:36;;;;;;;26.03;16.87;;;;;;;-2.99;100.00;98004.84;5031145;27;104901;-62
2022/01/14 05:41:18;;;;;;;26.67;17.10;;;;;;;-2.98;100.00;98009.06;5034015;27;105158;-62
2022/01/14 05:43:45;;;;;;;29.17;18.27;;;;;;;-3.01;100.00;98016.31;5030755;27;105174;-62
2022/01/14 05:46:12;;;;;;;27.73;16.73;;;;;;;-3.11;100.00;98011.03;5026659;28;105012;-62
2022/01/14 05:48:39;;;;;;;26.23;17.00;;;;;;;-3.13;100.00;98012.94;5010804;28;101856;-62
2022/01/14 05:51:06;;;;;;;27.17;16.70;;;;;;;-3.18;100.00;98012.50;5021672;27;105378;-62
2022/01/14 05:53:32;;;;;;;28.10;16.77;;;;;;;-3.12;100.00;98013.78;5030355;27;105327;-62
2022/01/14 05:55:59;;;;;;;25.00;16.40;;;;;;;-3.14;100.00;98006.09;5030497;27;101853;-62
2022/01/14 05:58:44;;;;;;;26.20;16.40;;;;;;;-3.26;100.00;98014.91;5030770;27;103616;-62
2022/01/14 06:01:11;;;;;;;25.47;16.63;;;;;;;-3.20;100.00;98019.59;5048621;27;103525;-62
2022/01/14 06:03:37;;;;;;;28.57;17.00;;;;;;;-3.16;100.00;98007.16;5030610;28;102111;-62
2022/01/14 06:06:05;;;;;;;28.17;16.93;;;;;;;-3.21;100.00;98012.75;5019089;27;105427;-62
2022/01/14 06:08:48;;;;;;;26.83;16.37;;;;;;;-3.16;100.00;98007.16;5019870;27;101871;-62
2022/01/14 06:11:31;;;;;;;29.67;19.20;;;;;;;-3.05;100.00;98015.75;5033540;27;105009;-62
2022/01/14 06:14:00;;;;;;;28.50;18.07;;;;;;;-3.13;100.00;98022.50;5033158;27;105668;-61
2022/01/14 06:16:27;;;;;;;28.13;18.10;;;;;;;-3.17;100.00;98019.34;5034240;27;101884;-61
2022/01/14 06:18:58;;;;;;;27.10;17.17;;;;;;;-3.34;100.00;98024.28;5033830;27;104012;-62
2022/01/14 06:21:25;;;;;;;28.57;17.57;;;;;;;-3.43;100.00;98025.88;5033603;27;105975;-62
2022/01/14 06:23:52;;;;;;;27.63;17.93;;;;;;;-3.21;100.00;98023.16;5034192;27;102179;-61
2022/01/14 06:26:19;;;;;;;29.20;18.20;;;;;;;-3.19;100.00;98028.22;5036680;27;105434;-61
2022/01/14 06:28:57;;;;;;;28.07;17.30;;;;;;;-3.27;100.00;98030.63;5033968;27;101891;-61
2022/01/14 06:31:25;;;;;;;26.30;16.80;;;;;;;-2.99;100.00;98033.47;5034084;27;105003;-61
2022/01/14 06:33:52;;;;;;;27.37;16.67;;;;;;;-2.89;100.00;98026.50;5029786;28;105789;-61
2022/01/14 06:36:19;;;;;;;25.00;16.03;;;;;;;-2.80;100.00;98025.75;5027675;27;102114;-61
2022/01/14 06:38:47;;;;;;;23.47;14.43;;;;;;;-2.77;100.00;98020.31;5052027;27;102880;-61
2022/01/14 06:41:18;;;;;;;24.07;15.23;;;;;;;-2.73;100.00;98016.47;5033340;27;105027;-61
2022/01/14 06:43:45;;;;;;;20.27;13.43;;;;;;;-2.58;100.00;98020.38;5033495;27;101777;-61
2022/01/14 06:46:13;;;;;;;19.80;12.83;;;;;;;-2.48;100.00;98018.66;5033572;27;104931;-61
2022/01/14 06:48:58;;;;;;;15.73;11.20;;;;;;;-2.47;100.00;98022.91;5032960;28;105643;-61
2022/01/14 06:51:26;;;;;;;16.80;11.30;;;;;;;-2.38;100.00;98016.94;5019098;27;105480;-61
2022/01/14 06:53:52;;;;;;;16.23;10.70;;;;;;;-2.17;100.00;98022.91;5033046;27;105715;-61
2022/01/14 06:56:20;;;;;;;11.50;8.70;;;;;;;-2.21;100.00;98016.31;5033250;27;102087;-61
2022/01/14 06:58:54;;;;;;;12.17;8.83;;;;;;;-2.07;100.00;98015.91;5030931;28;105620;-61
2022/01/14 07:01:21;;;;;;;11.77;8.00;;;;;;;-1.94;100.00;98011.31;5013755;28;105329;-61
2022/01/14 07:03:48;;;;;;;9.63;6.63;;;;;;;-1.58;100.00;98008.06;5031829;28;101975;-60
2022/01/14 07:06:17;;;;;;;9.00;6.63;;;;;;;-1.69;100.00;98010.78;5014158;28;105025;-61
2022/01/14 07:09:09;;;;;;;10.40;6.80;;;;;;;-1.38;100.00;98009.72;5016926;28;104335;-61
2022/01/14 07:11:38;;;;;;;11.57;5.70;;;;;;;-1.35;100.00;98014.69;4997572;28;103693;-61
2022/01/14 07:14:06;;;;;;;7.20;5.37;;;;;;;-1.28;100.00;98015.78;4991645;28;102742;-61
2022/01/14 07:16:34;;;;;;;5.27;3.50;;;;;;;-1.16;100.00;98014.66;5009779;28;101908;-61
2022/01/14 07:19:06;;;;;;;4.47;3.60;;;;;;;-1.13;100.00;98006.56;5010146;28;104752;-61
2022/01/14 07:21:35;;;;;;;5.63;3.60;;;;;;;-1.10;100.00;98006.28;5010151;28;105271;-61
2022/01/14 07:24:02;;;;;;;4.20;3.10;;;;;;;-1.09;100.00;98014.94;5010614;28;101856;-61
2022/01/14 07:26:29;;;;;;;6.73;2.90;;;;;;;-1.06;100.00;98009.44;5010509;28;105452;-61
2022/01/14 07:29:03;;;;;;;4.73;3.37;;;;;;;-1.05;100.00;98009.28;5009986;28;104971;-63
2022/01/14 07:31:30;;;;;;;4.43;3.23;;;;;;;-0.93;100.00;98009.97;5013674;28;101809;-63
2022/01/14 07:33:57;;;;;;;5.00;3.23;;;;;;;-0.86;100.00;98017.13;5006164;28;105395;-63
2022/01/14 07:36:24;;;;;;;6.53;4.10;;;;;;;-0.81;100.00;98009.69;5007757;28;102290;-62
2022/01/14 07:38:57;;;;;;;4.27;3.40;;;;;;;-0.82;100.00;98008.03;5000239;28;105627;-62
2022/01/14 07:41:43;;;;;;;4.17;3.23;;;;;;;-0.70;100.00;98014.75;5011206;28;102056;-61
2022/01/14 07:44:13;;;;;;;4.07;3.27;;;;;;;-0.66;100.00;98018.72;5010411;28;102010;-61
2022/01/14 07:46:41;;;;;;;3.80;3.40;;;;;;;-0.59;100.00;98017.19;5010219;28;105683;-61
2022/01/14 07:49:15;;;;;;;3.87;3.47;;;;;;;-0.48;100.00;98026.66;5009539;28;105892;-61
2022/01/14 07:51:43;;;;;;;3.63;3.27;;;;;;;-0.43;100.00;98022.66;5011873;28;102255;-61
2022/01/14 07:54:11;;;;;;;3.83;3.23;;;;;;;-0.38;100.00;98010.78;5013135;28;103639;-61
2022/01/14 07:56:40;;;;;;;5.83;3.73;;;;;;;-0.31;100.00;98008.44;5009963;28;102055;-61
2022/01/14 07:59:14;;;;;;;5.40;4.40;;;;;;;-0.27;100.00;98004.56;5010228;28;105331;-61
2022/01/14 08:01:42;;;;;;;8.13;5.23;;;;;;;-0.17;100.00;98016.63;5009382;28;105176;-62
2022/01/14 08:04:10;;;;;;;12.07;5.83;;;;;;;-0.21;100.00;98014.44;5009902;28;101920;-62
2022/01/14 08:06:44;;;;;;;10.23;7.27;;;;;;;-0.22;100.00;98021.47;5009724;28;105510;-62
2022/01/14 08:09:38;;;;;;;11.70;8.37;;;;;;;-0.17;100.00;98021.00;5010979;28;102615;-61
2022/01/14 08:12:15;;;;;;;12.90;9.20;;;;;;;-0.17;100.00;98021.00;5025581;28;102150;-63
2022/01/14 08:14:42;;;;;;;13.47;9.90;;;;;;;-0.06;100.00;98018.22;5030080;28;105204;-61
2022/01/14 08:17:11;;;;;;;14.90;11.07;;;;;;;-0.11;100.00;98015.22;5032768;28;106583;-61
2022/01/14 08:19:38;;;;;;;15.50;11.43;;;;;;;0.01;100.00;98009.66;5028937;28;105447;-61
2022/01/14 08:22:06;;;;;;;14.17;9.57;;;;;;;0.12;100.00;98011.25;5029612;28;102782;-61
2022/01/14 08:24:34;;;;;;;15.07;10.47;;;;;;;0.27;100.00;98010.59;5029801;28;101809;-61
2022/01/14 08:27:05;;;;;;;14.87;8.40;;;;;;;0.39;100.00;98011.22;5030072;27;103106;-61
2022/01/14 08:29:44;;;;;;;15.37;8.97;;;;;;;0.30;100.00;98010.31;5029487;27;103029;-61
2022/01/14 08:32:13;;;;;;;12.20;8.63;;;;;;;0.45;100.00;98016.69;5031217;28;101731;-61
2022/01/14 08:34:40;;;;;;;14.67;9.40;;;;;;;0.60;100.00;98009.16;5030950;28;102614;-61
2022/01/14 08:37:07;;;;;;;14.83;8.80;;;;;;;0.65;100.00;98007.72;5029229;28;104283;-62
2022/01/14 08:39:34;;;;;;;12.47;8.33;;;;;;;0.78;100.00;98004.72;5034370;27;101787;-62
2022/01/14 08:42:08;;;;;;;11.90;8.37;;;;;;;0.86;100.00;98002.16;5028910;28;104102;-61
2022/01/14 08:44:36;;;;;;;11.20;7.67;;;;;;;0.81;100.00;98005.25;5031209;27;101998;-62
2022/01/14 08:47:05;;;;;;;11.63;7.83;;;;;;;1.00;100.00;98009.50;5029519;28;103796;-62
2022/01/14 08:49:45;;;;;;;11.77;7.60;;;;;;;1.05;100.00;98007.25;5029921;28;103244;-62
2022/01/14 08:52:13;;;;;;;10.23;7.80;;;;;;;1.07;100.00;98011.38;5030629;28;101760;-62
2022/01/14 08:54:41;;;;;;;10.50;8.03;;;;;;;1.19;100.00;98004.06;5030752;27;102484;-62
2022/01/14 08:57:10;;;;;;;11.80;8.30;;;;;;;1.26;100.00;97997.25;5029854;28;104113;-64
2022/01/14 08:59:37;;;;;;;9.20;7.90;;;;;;;1.25;100.00;97999.03;5025713;27;101810;-63
2022/01/14 09:02:05;;;;;;;11.00;7.20;;;;;;;1.16;100.00;98005.19;5030587;28;102362;-62
2022/01/14 09:04:34;;;;;;;10.63;8.03;;;;;;;1.22;100.00;97998.53;5028946;28;102056;-62
2022/01/14 09:07:00;;;;;;;10.17;7.60;;;;;;;1.41;100.00;97993.06;5029066;28;105602;-62
2022/01/14 09:09:37;;;;;;;10.60;7.63;;;;;;;1.41;100.00;97995.69;5025026;28;105501;-61
2022/01/14 09:12:15;;;;;;;9.53;7.17;;;;;;;1.46;100.00;97998.69;4996749;28;101869;-62
2022/01/14 09:14:43;;;;;;;12.27;8.03;;;;;;;1.46;100.00;97990.81;5008926;28;104834;-62
2022/01/14 09:17:10;;;;;;;11.87;7.57;;;;;;;1.56;100.00;97999.41;5008085;28;105521;-62
2022/01/14 09:19:39;;;;;;;12.33;8.50;;;;;;;1.54;100.00;98002.16;5008832;28;101887;-63
2022/01/14 09:22:06;;;;;;;12.97;9.60;;;;;;;1.74;100.00;98000.16;5011460;28;105426;-63
2022/01/14 09:24:34;;;;;;;13.27;9.87;;;;;;;1.92;100.00;98003.53;5009139;28;101899;-61
2022/01/14 09:27:01;;;;;;;12.67;8.97;;;;;;;2.29;100.00;98015.31;5008815;28;105167;-63
2022/01/14 09:29:31;;;;;;;12.13;8.83;;;;;;;2.32;100.00;98016.78;5007823;28;105460;-62
2022/01/14 09:31:58;;;;;;;14.77;9.43;;;;;;;2.22;100.00;98011.69;5006819;28;101982;-63
2022/01/14 09:34:24;;;;;;;12.43;8.43;;;;;;;2.30;100.00;98006.44;5008811;28;103711;-64
2022/01/14 09:36:51;;;;;;;11.90;8.00;;;;;;;2.45;100.00;98002.22;5002802;28;105351;-62
2022/01/14 09:39:23;;;;;;;9.93;7.40;;;;;;;2.35;100.00;98001.53;5005433;28;101899;-60
2022/01/14 09:41:52;;;;;;;9.83;7.10;;;;;;;2.40;100.00;98003.72;4991708;28;104523;-64
2022/01/14 09:44:20;;;;;;;9.60;6.83;;;;;;;2.39;100.00;98000.25;4995123;28;105119;-63
2022/01/14 09:46:50;;;;;;;9.77;7.70;;;;;;;2.75;100.00;98008.69;4999351;28;105118;-64
2022/01/14 09:49:47;;;;;;;10.97;8.27;;;;;;;2.96;100.00;98003.78;5007636;28;105318;-61
2022/01/14 09:52:16;;;;;;;10.30;7.93;;;;;;;3.12;100.00;98004.59;5012000;28;101750;-62
2022/01/14 09:54:45;;;;;;;9.37;6.63;;;;;;;3.02;100.00;98011.00;5012168;28;106718;-62
2022/01/14 09:57:14;;;;;;;8.70;6.67;;;;;;;3.09;100.00;98002.31;5011474;28;105758;-67
2022/01/14 09:59:41;;;;;;;9.30;6.10;;;;;;;3.29;100.00;98002.78;5008607;28;101896;-63
2022/01/14 10:02:29;;;;;;;10.77;6.70;;;;;;;3.42;100.00;97997.84;4991852;28;106119;-62
2022/01/14 10:04:56;;;;;;;9.20;6.13;;;;;;;3.79;100.00;97995.44;4991192;28;105461;-62
2022/01/14 10:07:37;;;;;;;9.20;5.90;;;;;;;3.85;100.00;97994.78;4995474;28;101964;-65
2022/01/14 10:10:22;;;;;;;7.07;4.70;;;;;;;3.79;100.00;97995.44;4991310;28;105396;-62
2022/01/14 10:12:50;;;;;;;3.97;3.53;;;;;;;3.97;100.00;97988.97;5026383;28;101967;-62
2022/01/14 10:15:17;;;;;;;5.33;3.43;;;;;;;3.99;100.00;97976.47;5033469;28;102843;-64
2022/01/14 10:17:49;;;;;;;4.87;4.37;;;;;;;4.17;100.00;97970.97;5030985;28;105419;-64
2022/01/14 10:20:17;;;;;;;4.47;3.20;;;;;;;3.93;100.00;97966.63;5031591;28;101831;-63
2022/01/14 10:22:46;;;;;;;3.63;2.87;;;;;;;3.80;100.00;97963.72;5033370;27;102464;-63
2022/01/14 10:25:15;;;;;;;3.80;2.93;;;;;;;4.19;100.00;97955.78;5027622;28;104689;-61
2022/01/14 10:27:48;;;;;;;4.33;3.40;;;;;;;4.04;100.00;97954.91;5031396;28;103477;-61
2022/01/14 10:30:17;;;;;;;5.03;3.63;;;;;;;4.57;100.00;97950.47;5036197;27;102331;-61
2022/01/14 10:32:47;;;;;;;4.33;3.17;;;;;;;4.76;100.00;97949.19;5032079;27;101825;-61
2022/01/14 10:35:19;;;;;;;4.33;3.37;;;;;;;4.49;100.00;97952.34;5017329;28;103077;-62
2022/01/14 10:37:48;;;;;;;4.20;3.53;;;;;;;4.49;100.00;97953.19;5031206;28;105580;-61
2022/01/14 10:40:20;;;;;;;3.77;3.27;;;;;;;4.54;100.00;97955.28;5031513;28;101915;-61
2022/01/14 10:42:50;;;;;;;6.43;3.50;;;;;;;4.66;100.00;97962.63;5033212;28;103223;-62
2022/01/14 10:45:22;;;;;;;4.47;3.17;;;;;;;4.49;100.00;97953.19;5032278;28;102721;-61
2022/01/14 10:48:00;;;;;;;4.83;3.00;;;;;;;4.59;100.00;97950.31;5032825;28;101713;-61
2022/01/14 10:50:32;;;;;;;6.17;3.10;;;;;;;4.81;100.00;97950.28;5032899;28;102651;-62
2022/01/14 10:53:00;;;;;;;5.73;3.73;;;;;;;4.84;100.00;97941.22;5034569;27;102852;-61
2022/01/14 10:55:34;;;;;;;4.10;3.70;;;;;;;5.10;100.00;97946.94;5032605;28;102316;-62
2022/01/14 10:58:03;;;;;;;5.13;3.67;;;;;;;5.28;100.00;97936.88;5030727;28;105715;-62
2022/01/14 11:00:39;;;;;;;3.47;2.93;;;;;;;5.14;100.00;97942.94;5031267;28;101884;-62
2022/01/14 11:03:06;;;;;;;2.90;2.57;;;;;;;5.22;100.00;97943.69;5031162;28;103639;-62
2022/01/14 11:05:35;;;;;;;3.43;2.50;;;;;;;5.12;100.00;97937.06;5031523;28;102910;-63
2022/01/14 11:08:05;;;;;;;3.47;3.00;;;;;;;5.35;100.00;97928.06;5032406;27;101855;-62
2022/01/14 11:10:34;;;;;;;3.47;2.63;;;;;;;5.03;100.00;97931.00;5035753;27;102356;-64
2022/01/14 11:13:02;;;;;;;4.23;2.47;;;;;;;4.95;100.00;97932.88;5033640;27;105718;-63
2022/01/14 11:15:31;;;;;;;3.43;2.77;;;;;;;5.02;100.00;97928.56;5055818;27;101697;-64
2022/01/14 11:18:19;;;;;;;4.00;2.60;;;;;;;5.06;100.00;97925.38;5051779;27;104329;-65
2022/01/14 11:23:34;;;;;;;2.60;2.40;;;;;;;5.14;100.00;97916.59;5015317;27;103037;-63
2022/01/14 11:26:04;;;;;;;2.93;2.60;;;;;;;5.28;100.00;97918.41;5033500;27;105321;-63
2022/01/14 11:28:48;;;;;;;4.10;3.20;;;;;;;5.41;100.00;97926.53;5034149;27;101688;-62
2022/01/14 11:31:26;;;;;;;4.03;2.80;;;;;;;5.38;100.00;97919.81;5034071;27;104740;-61
2022/01/14 11:33:53;;;;;;;3.57;2.70;;;;;;;5.43;100.00;97921.88;5033233;27;105126;-62
2022/01/14 11:36:23;;;;;;;3.73;2.60;;;;;;;5.47;100.00;97921.38;5055892;27;102114;-61
2022/01/14 11:38:51;;;;;;;4.30;2.63;;;;;;;5.71;100.00;97912.34;5051641;27;102620;-62
2022/01/14 11:41:52;;;;;;;3.20;2.57;;;;;;;5.79;99.54;97901.69;5033912;27;101971;-69
2022/01/14 11:44:52;;;;;;;4.67;2.23;;;;;;;6.15;99.41;97899.91;5033778;27;105211;-63